sensor_id;sensor_type;location;lat;lon;timestamp;temperature;humidity
15357;DHT22;7778;48.792;9.260;2022-10-16T00:02:32;17.10;99.90
15357;DHT22;7778;48.792;9.260;2022-10-16T00:05:17;17.10;99.90
15357;DHT22;7778;48.792;9.260;2022-10-16T00:08:03;17.10;99.90
15357;DHT22;7778;48.792;9.260;2022-10-16T00:10:49;17.10;99.90
15357;DHT22;7778;48.792;9.260;2022-10-16T00:13:37;17.00;99.90
15357;DHT22;7778;48.792;9.260;2022-10-16T00:16:25;17.10;99.90
15357;DHT22;7778;48.792;9.260;2022-10-16T00:19:11;17.10;99.90
15357;DHT22;7778;48.792;9.260;2022-10-16T00:21:57;17.10;99.90
15357;DHT22;7778;48.792;9.260;2022-10-16T00:24:42;16.90;99.90
15357;DHT22;7778;48.792;9.260;2022-10-16T00:27:28;16.80;99.90
15357;DHT22;7778;48.792;9.260;2022-10-16T00:30:15;16.80;99.90
15357;DHT22;7778;48.792;9.260;2022-10-16T00:33:01;16.80;99.90
15357;DHT22;7778;48.792;9.260;2022-10-16T00:35:47;16.70;99.90
15357;DHT22;7778;48.792;9.260;2022-10-16T00:38:33;16.80;99.90
15357;DHT22;7778;48.792;9.260;2022-10-16T00:41:18;16.70;99.90
15357;DHT22;7778;48.792;9.260;2022-10-16T00:44:44;16.80;99.90
15357;DHT22;7778;48.792;9.260;2022-10-16T00:47:34;16.60;99.90
15357;DHT22;7778;48.792;9.260;2022-10-16T00:50:26;16.70;99.90
15357;DHT22;7778;48.792;9.260;2022-10-16T00:53:14;16.70;99.90
15357;DHT22;7778;48.792;9.260;2022-10-16T00:56:01;16.70;99.90
15357;DHT22;7778;48.792;9.260;2022-10-16T00:58:48;16.70;99.90
15357;DHT22;7778;48.792;9.260;2022-10-16T01:01:34;16.70;99.90
15357;DHT22;7778;48.792;9.260;2022-10-16T01:04:21;16.70;99.90
15357;DHT22;7778;48.792;9.260;2022-10-16T01:07:12;16.70;99.90
15357;DHT22;7778;48.792;9.260;2022-10-16T01:10:11;16.70;99.90
15357;DHT22;7778;48.792;9.260;2022-10-16T01:13:06;16.70;99.90
15357;DHT22;7778;48.792;9.260;2022-10-16T01:15:55;16.60;99.90
15357;DHT22;7778;48.792;9.260;2022-10-16T01:18:47;16.60;99.90
15357;DHT22;7778;48.792;9.260;2022-10-16T01:21:41;16.60;99.90
15357;DHT22;7778;48.792;9.260;2022-10-16T01:24:38;16.60;99.90
15357;DHT22;7778;48.792;9.260;2022-10-16T01:27:28;16.60;99.90
15357;DHT22;7778;48.792;9.260;2022-10-16T01:30:20;16.60;99.90
15357;DHT22;7778;48.792;9.260;2022-10-16T01:33:12;16.50;99.90
15357;DHT22;7778;48.792;9.260;2022-10-16T01:36:05;16.50;99.90
15357;DHT22;7778;48.792;9.260;2022-10-16T01:38:58;16.60;99.90
15357;DHT22;7778;48.792;9.260;2022-10-16T01:41:50;16.60;99.90
15357;DHT22;7778;48.792;9.260;2022-10-16T01:44:39;16.60;99.90
15357;DHT22;7778;48.792;9.260;2022-10-16T01:47:27;16.60;99.90
15357;DHT22;7778;48.792;9.260;2022-10-16T01:50:15;16.70;99.90
15357;DHT22;7778;48.792;9.260;2022-10-16T01:53:03;16.70;99.90
15357;DHT22;7778;48.792;9.260;2022-10-16T01:55:50;16.70;99.90
15357;DHT22;7778;48.792;9.260;2022-10-16T01:58:40;16.70;99.90
15357;DHT22;7778;48.792;9.260;2022-10-16T02:01:32;16.60;99.90
15357;DHT22;7778;48.792;9.260;2022-10-16T02:04:23;16.50;99.90
15357;DHT22;7778;48.792;9.260;2022-10-16T02:07:12;16.80;99.90
15357;DHT22;7778;48.792;9.260;2022-10-16T02:09:59;16.60;99.90
15357;DHT22;7778;48.792;9.260;2022-10-16T02:12:48;16.50;99.90
15357;DHT22;7778;48.792;9.260;2022-10-16T02:15:35;16.50;99.90
15357;DHT22;7778;48.792;9.260;2022-10-16T02:18:22;16.50;99.90
15357;DHT22;7778;48.792;9.260;2022-10-16T02:21:15;16.50;99.90
15357;DHT22;7778;48.792;9.260;2022-10-16T02:24:08;16.40;99.90
15357;DHT22;7778;48.792;9.260;2022-10-16T02:27:00;16.40;99.90
15357;DHT22;7778;48.792;9.260;2022-10-16T02:29:53;16.50;99.90
15357;DHT22;7778;48.792;9.260;2022-10-16T02:32:45;16.50;99.90
15357;DHT22;7778;48.792;9.260;2022-10-16T02:35:33;16.50;99.90
15357;DHT22;7778;48.792;9.260;2022-10-16T02:38:20;16.50;99.90
15357;DHT22;7778;48.792;9.260;2022-10-16T02:41:07;16.60;99.90
15357;DHT22;7778;48.792;9.260;2022-10-16T02:43:52;16.60;99.90
15357;DHT22;7778;48.792;9.260;2022-10-16T02:46:39;16.50;99.90
15357;DHT22;7778;48.792;9.260;2022-10-16T02:49:24;16.50;99.90
15357;DHT22;7778;48.792;9.260;2022-10-16T02:52:11;16.40;99.90
15357;DHT22;7778;48.792;9.260;2022-10-16T02:54:57;16.30;99.90
15357;DHT22;7778;48.792;9.260;2022-10-16T02:57:43;16.20;99.90
15357;DHT22;7778;48.792;9.260;2022-10-16T03:00:31;16.30;99.90
15357;DHT22;7778;48.792;9.260;2022-10-16T03:03:17;16.30;99.90
15357;DHT22;7778;48.792;9.260;2022-10-16T03:06:03;16.20;99.90
15357;DHT22;7778;48.792;9.260;2022-10-16T03:08:50;16.20;99.90
15357;DHT22;7778;48.792;9.260;2022-10-16T03:11:35;16.20;99.90
15357;DHT22;7778;48.792;9.260;2022-10-16T03:14:21;16.30;99.90
15357;DHT22;7778;48.792;9.260;2022-10-16T03:17:07;16.20;99.90
15357;DHT22;7778;48.792;9.260;2022-10-16T03:19:52;16.10;99.90
15357;DHT22;7778;48.792;9.260;2022-10-16T03:22:38;16.10;99.90
15357;DHT22;7778;48.792;9.260;2022-10-16T03:25:25;16.10;99.90
15357;DHT22;7778;48.792;9.260;2022-10-16T03:28:11;16.00;99.90
15357;DHT22;7778;48.792;9.260;2022-10-16T03:30:57;16.00;99.90
15357;DHT22;7778;48.792;9.260;2022-10-16T03:33:42;16.00;99.90
15357;DHT22;7778;48.792;9.260;2022-10-16T03:36:28;15.90;99.90
15357;DHT22;7778;48.792;9.260;2022-10-16T03:39:14;15.80;99.90
15357;DHT22;7778;48.792;9.260;2022-10-16T03:42:01;15.90;99.90
15357;DHT22;7778;48.792;9.260;2022-10-16T03:44:46;15.80;99.90
15357;DHT22;7778;48.792;9.260;2022-10-16T03:47:32;15.80;99.90
15357;DHT22;7778;48.792;9.260;2022-10-16T03:50:18;15.80;99.90
15357;DHT22;7778;48.792;9.260;2022-10-16T03:53:04;15.60;99.90
15357;DHT22;7778;48.792;9.260;2022-10-16T03:55:50;15.50;99.90
15357;DHT22;7778;48.792;9.260;2022-10-16T03:58:36;15.30;99.90
15357;DHT22;7778;48.792;9.260;2022-10-16T04:01:22;15.40;99.90
15357;DHT22;7778;48.792;9.260;2022-10-16T04:04:08;15.40;99.90
15357;DHT22;7778;48.792;9.260;2022-10-16T04:06:53;15.40;99.90
15357;DHT22;7778;48.792;9.260;2022-10-16T04:09:39;15.50;99.90
15357;DHT22;7778;48.792;9.260;2022-10-16T04:12:25;15.50;99.90
15357;DHT22;7778;48.792;9.260;2022-10-16T04:15:13;15.50;99.90
15357;DHT22;7778;48.792;9.260;2022-10-16T04:17:58;15.50;99.90
15357;DHT22;7778;48.792;9.260;2022-10-16T04:20:44;15.60;99.90
15357;DHT22;7778;48.792;9.260;2022-10-16T04:23:29;15.60;99.90
15357;DHT22;7778;48.792;9.260;2022-10-16T04:26:15;15.80;99.90
15357;DHT22;7778;48.792;9.260;2022-10-16T04:29:01;15.50;99.90
15357;DHT22;7778;48.792;9.260;2022-10-16T04:31:48;15.40;99.90
15357;DHT22;7778;48.792;9.260;2022-10-16T04:34:33;15.60;99.90
15357;DHT22;7778;48.792;9.260;2022-10-16T04:37:22;15.70;99.90
15357;DHT22;7778;48.792;9.260;2022-10-16T04:40:09;15.80;99.90
15357;DHT22;7778;48.792;9.260;2022-10-16T04:42:55;15.70;99.90
15357;DHT22;7778;48.792;9.260;2022-10-16T04:45:40;15.70;99.90
15357;DHT22;7778;48.792;9.260;2022-10-16T04:48:27;15.60;99.90
15357;DHT22;7778;48.792;9.260;2022-10-16T04:51:13;15.60;99.90
15357;DHT22;7778;48.792;9.260;2022-10-16T04:53:59;15.70;99.90
15357;DHT22;7778;48.792;9.260;2022-10-16T04:56:44;15.90;99.90
15357;DHT22;7778;48.792;9.260;2022-10-16T04:59:32;15.80;99.90
15357;DHT22;7778;48.792;9.260;2022-10-16T05:02:18;15.90;99.90
15357;DHT22;7778;48.792;9.260;2022-10-16T05:05:06;15.90;99.90
15357;DHT22;7778;48.792;9.260;2022-10-16T05:07:52;15.80;99.90
15357;DHT22;7778;48.792;9.260;2022-10-16T05:10:38;15.70;99.90
15357;DHT22;7778;48.792;9.260;2022-10-16T05:13:24;15.70;99.90
15357;DHT22;7778;48.792;9.260;2022-10-16T05:16:10;15.60;99.90
15357;DHT22;7778;48.792;9.260;2022-10-16T05:18:56;15.70;99.90
15357;DHT22;7778;48.792;9.260;2022-10-16T05:21:43;15.70;99.90
15357;DHT22;7778;48.792;9.260;2022-10-16T05:24:29;15.60;99.90
15357;DHT22;7778;48.792;9.260;2022-10-16T05:27:15;15.70;99.90
15357;DHT22;7778;48.792;9.260;2022-10-16T05:30:04;15.60;99.90
15357;DHT22;7778;48.792;9.260;2022-10-16T05:32:51;15.70;99.90
15357;DHT22;7778;48.792;9.260;2022-10-16T05:35:37;15.70;99.90
15357;DHT22;7778;48.792;9.260;2022-10-16T05:38:27;15.80;99.90
15357;DHT22;7778;48.792;9.260;2022-10-16T05:41:12;15.90;99.90
15357;DHT22;7778;48.792;9.260;2022-10-16T05:43:58;15.70;99.90
15357;DHT22;7778;48.792;9.260;2022-10-16T05:46:43;15.60;99.90
15357;DHT22;7778;48.792;9.260;2022-10-16T05:49:31;15.70;99.90
15357;DHT22;7778;48.792;9.260;2022-10-16T05:52:17;15.70;99.90
15357;DHT22;7778;48.792;9.260;2022-10-16T05:55:04;15.70;99.90
15357;DHT22;7778;48.792;9.260;2022-10-16T05:57:53;15.70;99.90
15357;DHT22;7778;48.792;9.260;2022-10-16T06:00:39;15.90;99.90
15357;DHT22;7778;48.792;9.260;2022-10-16T06:03:25;15.80;99.90
15357;DHT22;7778;48.792;9.260;2022-10-16T06:06:12;15.90;99.90
15357;DHT22;7778;48.792;9.260;2022-10-16T06:09:00;15.80;99.90
15357;DHT22;7778;48.792;9.260;2022-10-16T06:11:46;15.70;99.90
15357;DHT22;7778;48.792;9.260;2022-10-16T06:14:32;15.70;99.90
15357;DHT22;7778;48.792;9.260;2022-10-16T06:17:18;15.80;99.90
15357;DHT22;7778;48.792;9.260;2022-10-16T06:20:05;15.70;99.90
15357;DHT22;7778;48.792;9.260;2022-10-16T06:22:51;15.80;99.90
15357;DHT22;7778;48.792;9.260;2022-10-16T06:25:37;15.80;99.90
15357;DHT22;7778;48.792;9.260;2022-10-16T06:28:24;15.90;99.90
15357;DHT22;7778;48.792;9.260;2022-10-16T06:31:10;15.80;99.90
15357;DHT22;7778;48.792;9.260;2022-10-16T06:33:57;15.80;99.90
15357;DHT22;7778;48.792;9.260;2022-10-16T06:36:43;15.70;99.90
15357;DHT22;7778;48.792;9.260;2022-10-16T06:39:28;15.80;99.90
15357;DHT22;7778;48.792;9.260;2022-10-16T06:42:14;15.90;99.90
15357;DHT22;7778;48.792;9.260;2022-10-16T06:45:02;16.00;99.90
15357;DHT22;7778;48.792;9.260;2022-10-16T06:47:48;16.10;99.90
15357;DHT22;7778;48.792;9.260;2022-10-16T06:50:33;16.20;99.90
15357;DHT22;7778;48.792;9.260;2022-10-16T06:53:19;16.20;99.90
15357;DHT22;7778;48.792;9.260;2022-10-16T06:56:09;16.30;99.90
15357;DHT22;7778;48.792;9.260;2022-10-16T06:58:55;16.40;99.90
15357;DHT22;7778;48.792;9.260;2022-10-16T07:01:42;16.70;99.90
15357;DHT22;7778;48.792;9.260;2022-10-16T07:04:28;16.60;99.90
15357;DHT22;7778;48.792;9.260;2022-10-16T07:07:14;16.70;99.90
15357;DHT22;7778;48.792;9.260;2022-10-16T07:09:59;16.70;99.90
15357;DHT22;7778;48.792;9.260;2022-10-16T07:12:45;16.70;99.90
15357;DHT22;7778;48.792;9.260;2022-10-16T07:15:31;16.70;99.90
15357;DHT22;7778;48.792;9.260;2022-10-16T07:18:17;16.80;99.90
15357;DHT22;7778;48.792;9.260;2022-10-16T07:21:04;16.90;99.90
15357;DHT22;7778;48.792;9.260;2022-10-16T07:23:50;17.00;99.90
15357;DHT22;7778;48.792;9.260;2022-10-16T07:26:37;17.10;99.90
15357;DHT22;7778;48.792;9.260;2022-10-16T07:29:23;17.10;99.90
15357;DHT22;7778;48.792;9.260;2022-10-16T07:32:09;17.20;99.90
15357;DHT22;7778;48.792;9.260;2022-10-16T07:34:56;17.20;99.90
15357;DHT22;7778;48.792;9.260;2022-10-16T07:37:44;17.30;99.90
15357;DHT22;7778;48.792;9.260;2022-10-16T07:40:30;17.30;99.90
15357;DHT22;7778;48.792;9.260;2022-10-16T07:43:16;17.30;99.90
15357;DHT22;7778;48.792;9.260;2022-10-16T07:46:01;17.10;99.90
15357;DHT22;7778;48.792;9.260;2022-10-16T07:48:48;16.90;99.90
15357;DHT22;7778;48.792;9.260;2022-10-16T07:51:35;16.90;99.90
15357;DHT22;7778;48.792;9.260;2022-10-16T07:54:22;16.80;99.90
15357;DHT22;7778;48.792;9.260;2022-10-16T07:57:07;17.00;99.90
15357;DHT22;7778;48.792;9.260;2022-10-16T07:59:53;17.10;99.90
15357;DHT22;7778;48.792;9.260;2022-10-16T08:02:39;17.10;99.90
15357;DHT22;7778;48.792;9.260;2022-10-16T08:05:24;17.00;99.90
15357;DHT22;7778;48.792;9.260;2022-10-16T08:08:14;17.10;99.90
15357;DHT22;7778;48.792;9.260;2022-10-16T08:11:00;17.10;99.90
15357;DHT22;7778;48.792;9.260;2022-10-16T08:13:47;17.10;99.90
15357;DHT22;7778;48.792;9.260;2022-10-16T08:16:33;17.20;99.90
15357;DHT22;7778;48.792;9.260;2022-10-16T08:19:19;17.30;99.90
15357;DHT22;7778;48.792;9.260;2022-10-16T08:22:05;17.40;99.90
15357;DHT22;7778;48.792;9.260;2022-10-16T08:24:52;17.60;99.90
15357;DHT22;7778;48.792;9.260;2022-10-16T08:27:37;17.80;99.90
15357;DHT22;7778;48.792;9.260;2022-10-16T08:30:24;18.00;99.90
15357;DHT22;7778;48.792;9.260;2022-10-16T08:33:10;18.60;99.90
15357;DHT22;7778;48.792;9.260;2022-10-16T08:35:55;19.50;99.90
15357;DHT22;7778;48.792;9.260;2022-10-16T08:38:41;19.70;99.90
15357;DHT22;7778;48.792;9.260;2022-10-16T08:41:54;19.70;99.90
15357;DHT22;7778;48.792;9.260;2022-10-16T08:45:15;19.90;99.90
15357;DHT22;7778;48.792;9.260;2022-10-16T08:48:17;19.90;99.90
15357;DHT22;7778;48.792;9.260;2022-10-16T08:51:08;19.90;99.90
15357;DHT22;7778;48.792;9.260;2022-10-16T08:53:58;19.50;99.90
15357;DHT22;7778;48.792;9.260;2022-10-16T08:56:46;19.50;99.90
15357;DHT22;7778;48.792;9.260;2022-10-16T08:59:32;19.30;99.90
15357;DHT22;7778;48.792;9.260;2022-10-16T09:02:24;19.20;99.90
15357;DHT22;7778;48.792;9.260;2022-10-16T09:05:28;19.40;99.90
15357;DHT22;7778;48.792;9.260;2022-10-16T09:08:30;19.50;99.90
15357;DHT22;7778;48.792;9.260;2022-10-16T09:11:30;19.50;99.90
15357;DHT22;7778;48.792;9.260;2022-10-16T09:14:36;19.30;99.90
15357;DHT22;7778;48.792;9.260;2022-10-16T09:17:40;19.20;99.90
15357;DHT22;7778;48.792;9.260;2022-10-16T09:20:41;19.40;99.90
15357;DHT22;7778;48.792;9.260;2022-10-16T09:23:34;19.80;99.90
15357;DHT22;7778;48.792;9.260;2022-10-16T09:26:20;20.20;99.90
15357;DHT22;7778;48.792;9.260;2022-10-16T09:29:06;20.80;99.90
15357;DHT22;7778;48.792;9.260;2022-10-16T09:31:57;22.30;99.90
15357;DHT22;7778;48.792;9.260;2022-10-16T09:34:55;23.00;99.90
15357;DHT22;7778;48.792;9.260;2022-10-16T09:37:43;22.90;99.90
15357;DHT22;7778;48.792;9.260;2022-10-16T09:40:32;22.50;99.90
15357;DHT22;7778;48.792;9.260;2022-10-16T09:43:22;23.00;99.90
15357;DHT22;7778;48.792;9.260;2022-10-16T09:46:22;24.70;99.90
15357;DHT22;7778;48.792;9.260;2022-10-16T09:49:21;24.10;99.90
15357;DHT22;7778;48.792;9.260;2022-10-16T09:52:12;22.60;99.90
15357;DHT22;7778;48.792;9.260;2022-10-16T09:55:01;21.80;99.90
15357;DHT22;7778;48.792;9.260;2022-10-16T09:57:55;21.90;99.90
15357;DHT22;7778;48.792;9.260;2022-10-16T10:00:41;22.40;99.90
15357;DHT22;7778;48.792;9.260;2022-10-16T10:03:35;23.80;99.90
15357;DHT22;7778;48.792;9.260;2022-10-16T10:06:26;24.30;99.90
15357;DHT22;7778;48.792;9.260;2022-10-16T10:09:19;23.50;99.90
15357;DHT22;7778;48.792;9.260;2022-10-16T10:12:17;23.20;99.90
15357;DHT22;7778;48.792;9.260;2022-10-16T10:15:07;23.00;99.90
15357;DHT22;7778;48.792;9.260;2022-10-16T10:17:57;22.80;99.90
15357;DHT22;7778;48.792;9.260;2022-10-16T10:20:43;22.70;99.90
15357;DHT22;7778;48.792;9.260;2022-10-16T10:23:30;22.70;99.90
15357;DHT22;7778;48.792;9.260;2022-10-16T10:26:18;22.60;99.90
15357;DHT22;7778;48.792;9.260;2022-10-16T10:29:12;22.60;99.90
15357;DHT22;7778;48.792;9.260;2022-10-16T10:32:12;22.80;99.90
15357;DHT22;7778;48.792;9.260;2022-10-16T10:35:14;23.70;99.90
15357;DHT22;7778;48.792;9.260;2022-10-16T10:38:10;24.60;99.90
15357;DHT22;7778;48.792;9.260;2022-10-16T10:45:02;24.40;99.90
15357;DHT22;7778;48.792;9.260;2022-10-16T10:48:14;23.70;99.90
15357;DHT22;7778;48.792;9.260;2022-10-16T10:51:10;23.80;99.90
15357;DHT22;7778;48.792;9.260;2022-10-16T10:54:10;24.20;99.90
15357;DHT22;7778;48.792;9.260;2022-10-16T10:57:06;25.10;99.90
15357;DHT22;7778;48.792;9.260;2022-10-16T11:00:07;26.40;99.90
15357;DHT22;7778;48.792;9.260;2022-10-16T11:03:11;28.10;99.90
15357;DHT22;7778;48.792;9.260;2022-10-16T11:06:05;29.20;99.90
15357;DHT22;7778;48.792;9.260;2022-10-16T11:08:55;29.50;99.90
15357;DHT22;7778;48.792;9.260;2022-10-16T11:11:46;29.90;99.90
15357;DHT22;7778;48.792;9.260;2022-10-16T11:14:40;30.20;99.90
15357;DHT22;7778;48.792;9.260;2022-10-16T11:17:31;30.00;99.90
15357;DHT22;7778;48.792;9.260;2022-10-16T11:20:23;30.40;99.90
15357;DHT22;7778;48.792;9.260;2022-10-16T11:23:14;31.10;99.90
15357;DHT22;7778;48.792;9.260;2022-10-16T11:26:09;30.20;99.90
15357;DHT22;7778;48.792;9.260;2022-10-16T11:28:58;29.20;99.90
15357;DHT22;7778;48.792;9.260;2022-10-16T11:31:50;28.20;99.90
15357;DHT22;7778;48.792;9.260;2022-10-16T11:34:41;27.30;99.90
15357;DHT22;7778;48.792;9.260;2022-10-16T11:37:33;26.70;99.90
15357;DHT22;7778;48.792;9.260;2022-10-16T11:40:28;26.40;99.90
15357;DHT22;7778;48.792;9.260;2022-10-16T11:43:19;25.90;99.90
15357;DHT22;7778;48.792;9.260;2022-10-16T11:46:12;25.80;99.90
15357;DHT22;7778;48.792;9.260;2022-10-16T11:49:06;25.90;99.90
15357;DHT22;7778;48.792;9.260;2022-10-16T11:52:01;26.00;99.90
15357;DHT22;7778;48.792;9.260;2022-10-16T11:54:55;25.90;99.90
15357;DHT22;7778;48.792;9.260;2022-10-16T11:57:47;25.50;99.90
15357;DHT22;7778;48.792;9.260;2022-10-16T12:00:40;25.60;99.90
15357;DHT22;7778;48.792;9.260;2022-10-16T12:03:32;25.70;99.90
15357;DHT22;7778;48.792;9.260;2022-10-16T12:06:31;25.80;99.90
15357;DHT22;7778;48.792;9.260;2022-10-16T12:09:22;25.90;99.90
15357;DHT22;7778;48.792;9.260;2022-10-16T12:12:28;25.60;99.90
15357;DHT22;7778;48.792;9.260;2022-10-16T12:15:25;25.70;99.90
15357;DHT22;7778;48.792;9.260;2022-10-16T12:18:21;25.60;99.90
15357;DHT22;7778;48.792;9.260;2022-10-16T12:21:07;25.60;99.90
15357;DHT22;7778;48.792;9.260;2022-10-16T12:23:57;25.60;99.90
15357;DHT22;7778;48.792;9.260;2022-10-16T12:26:45;25.70;99.90
15357;DHT22;7778;48.792;9.260;2022-10-16T12:29:36;25.80;99.90
15357;DHT22;7778;48.792;9.260;2022-10-16T12:32:30;25.80;99.90
15357;DHT22;7778;48.792;9.260;2022-10-16T12:35:20;25.80;99.90
15357;DHT22;7778;48.792;9.260;2022-10-16T12:38:12;25.80;99.90
15357;DHT22;7778;48.792;9.260;2022-10-16T12:41:04;25.60;99.90
15357;DHT22;7778;48.792;9.260;2022-10-16T12:43:52;25.60;99.90
15357;DHT22;7778;48.792;9.260;2022-10-16T12:46:39;25.70;99.90
15357;DHT22;7778;48.792;9.260;2022-10-16T12:49:35;25.70;99.90
15357;DHT22;7778;48.792;9.260;2022-10-16T12:52:28;25.90;99.90
15357;DHT22;7778;48.792;9.260;2022-10-16T12:55:21;26.00;99.90
15357;DHT22;7778;48.792;9.260;2022-10-16T12:58:27;25.80;99.90
15357;DHT22;7778;48.792;9.260;2022-10-16T13:01:37;25.60;99.90
15357;DHT22;7778;48.792;9.260;2022-10-16T13:04:44;25.30;99.90
15357;DHT22;7778;48.792;9.260;2022-10-16T13:07:49;25.10;99.90
15357;DHT22;7778;48.792;9.260;2022-10-16T13:10:51;24.90;99.90
15357;DHT22;7778;48.792;9.260;2022-10-16T13:14:05;24.60;99.90
15357;DHT22;7778;48.792;9.260;2022-10-16T13:17:06;24.50;99.90
15357;DHT22;7778;48.792;9.260;2022-10-16T13:20:04;24.30;99.90
15357;DHT22;7778;48.792;9.260;2022-10-16T13:23:04;24.30;99.90
15357;DHT22;7778;48.792;9.260;2022-10-16T13:26:08;24.50;99.90
15357;DHT22;7778;48.792;9.260;2022-10-16T13:29:02;24.60;99.90
15357;DHT22;7778;48.792;9.260;2022-10-16T13:31:49;24.70;99.90
15357;DHT22;7778;48.792;9.260;2022-10-16T13:34:44;24.60;99.90
15357;DHT22;7778;48.792;9.260;2022-10-16T13:37:31;24.60;99.90
15357;DHT22;7778;48.792;9.260;2022-10-16T13:40:20;24.50;99.90
15357;DHT22;7778;48.792;9.260;2022-10-16T13:43:09;24.50;99.90
15357;DHT22;7778;48.792;9.260;2022-10-16T13:45:59;24.50;99.90
15357;DHT22;7778;48.792;9.260;2022-10-16T13:48:57;24.60;99.90
15357;DHT22;7778;48.792;9.260;2022-10-16T13:51:54;24.50;99.90
15357;DHT22;7778;48.792;9.260;2022-10-16T13:54:42;24.50;99.90
15357;DHT22;7778;48.792;9.260;2022-10-16T13:57:29;24.40;99.90
15357;DHT22;7778;48.792;9.260;2022-10-16T14:00:18;24.50;99.90
15357;DHT22;7778;48.792;9.260;2022-10-16T14:03:13;24.20;99.90
15357;DHT22;7778;48.792;9.260;2022-10-16T14:06:03;24.10;99.90
15357;DHT22;7778;48.792;9.260;2022-10-16T14:08:57;23.80;99.90
15357;DHT22;7778;48.792;9.260;2022-10-16T14:11:47;23.70;99.90
15357;DHT22;7778;48.792;9.260;2022-10-16T14:14:41;23.40;99.90
15357;DHT22;7778;48.792;9.260;2022-10-16T14:17:30;23.30;99.90
15357;DHT22;7778;48.792;9.260;2022-10-16T14:20:23;23.20;99.90
15357;DHT22;7778;48.792;9.260;2022-10-16T14:23:21;23.10;99.90
15357;DHT22;7778;48.792;9.260;2022-10-16T14:26:16;22.90;99.90
15357;DHT22;7778;48.792;9.260;2022-10-16T14:29:12;22.90;99.90
15357;DHT22;7778;48.792;9.260;2022-10-16T14:32:02;22.90;99.90
15357;DHT22;7778;48.792;9.260;2022-10-16T14:34:53;23.00;99.90
15357;DHT22;7778;48.792;9.260;2022-10-16T14:37:41;23.00;99.90
15357;DHT22;7778;48.792;9.260;2022-10-16T14:40:30;23.10;99.90
15357;DHT22;7778;48.792;9.260;2022-10-16T14:43:21;23.10;99.90
15357;DHT22;7778;48.792;9.260;2022-10-16T14:46:13;23.20;99.90
15357;DHT22;7778;48.792;9.260;2022-10-16T14:49:13;23.30;99.90
15357;DHT22;7778;48.792;9.260;2022-10-16T14:52:09;23.30;99.90
15357;DHT22;7778;48.792;9.260;2022-10-16T14:54:58;23.30;99.90
15357;DHT22;7778;48.792;9.260;2022-10-16T14:57:44;23.30;99.90
15357;DHT22;7778;48.792;9.260;2022-10-16T15:00:31;23.30;99.90
15357;DHT22;7778;48.792;9.260;2022-10-16T15:03:19;23.30;99.90
15357;DHT22;7778;48.792;9.260;2022-10-16T15:06:10;23.20;99.90
15357;DHT22;7778;48.792;9.260;2022-10-16T15:09:09;23.20;99.90
15357;DHT22;7778;48.792;9.260;2022-10-16T15:11:57;23.20;99.90
15357;DHT22;7778;48.792;9.260;2022-10-16T15:14:44;23.20;99.90
15357;DHT22;7778;48.792;9.260;2022-10-16T15:17:30;23.10;99.90
15357;DHT22;7778;48.792;9.260;2022-10-16T15:20:17;23.10;99.90
15357;DHT22;7778;48.792;9.260;2022-10-16T15:23:05;23.10;99.90
15357;DHT22;7778;48.792;9.260;2022-10-16T15:25:59;23.10;99.90
15357;DHT22;7778;48.792;9.260;2022-10-16T15:28:51;23.10;99.90
15357;DHT22;7778;48.792;9.260;2022-10-16T15:31:43;23.10;99.90
15357;DHT22;7778;48.792;9.260;2022-10-16T15:34:32;23.10;99.90
15357;DHT22;7778;48.792;9.260;2022-10-16T15:37:19;23.00;99.90
15357;DHT22;7778;48.792;9.260;2022-10-16T15:40:06;22.90;99.90
15357;DHT22;7778;48.792;9.260;2022-10-16T15:42:53;22.80;99.90
15357;DHT22;7778;48.792;9.260;2022-10-16T15:45:40;22.70;99.90
15357;DHT22;7778;48.792;9.260;2022-10-16T15:48:26;22.70;99.90
15357;DHT22;7778;48.792;9.260;2022-10-16T15:51:13;22.60;99.90
15357;DHT22;7778;48.792;9.260;2022-10-16T15:53:59;22.50;99.90
15357;DHT22;7778;48.792;9.260;2022-10-16T15:56:46;22.40;99.90
15357;DHT22;7778;48.792;9.260;2022-10-16T15:59:32;22.30;99.90
15357;DHT22;7778;48.792;9.260;2022-10-16T16:02:19;22.20;99.90
15357;DHT22;7778;48.792;9.260;2022-10-16T16:05:06;22.00;99.90
15357;DHT22;7778;48.792;9.260;2022-10-16T16:07:53;21.90;99.90
15357;DHT22;7778;48.792;9.260;2022-10-16T16:10:39;21.80;99.90
15357;DHT22;7778;48.792;9.260;2022-10-16T16:13:25;21.70;99.90
15357;DHT22;7778;48.792;9.260;2022-10-16T16:16:13;21.50;99.90
15357;DHT22;7778;48.792;9.260;2022-10-16T16:19:00;21.40;99.90
15357;DHT22;7778;48.792;9.260;2022-10-16T16:21:46;21.30;99.90
15357;DHT22;7778;48.792;9.260;2022-10-16T16:24:32;21.20;99.90
15357;DHT22;7778;48.792;9.260;2022-10-16T16:27:18;21.10;99.90
15357;DHT22;7778;48.792;9.260;2022-10-16T16:30:05;21.00;99.90
15357;DHT22;7778;48.792;9.260;2022-10-16T16:32:54;20.90;99.90
15357;DHT22;7778;48.792;9.260;2022-10-16T16:35:41;20.80;99.90
15357;DHT22;7778;48.792;9.260;2022-10-16T16:38:28;20.80;99.90
15357;DHT22;7778;48.792;9.260;2022-10-16T16:41:15;20.50;99.90
15357;DHT22;7778;48.792;9.260;2022-10-16T16:44:03;20.40;99.90
15357;DHT22;7778;48.792;9.260;2022-10-16T16:46:50;20.30;99.90
15357;DHT22;7778;48.792;9.260;2022-10-16T16:49:36;20.30;99.90
15357;DHT22;7778;48.792;9.260;2022-10-16T16:52:23;20.20;99.90
15357;DHT22;7778;48.792;9.260;2022-10-16T16:55:09;20.10;99.90
15357;DHT22;7778;48.792;9.260;2022-10-16T16:57:55;20.10;99.90
15357;DHT22;7778;48.792;9.260;2022-10-16T17:00:45;20.20;99.90
15357;DHT22;7778;48.792;9.260;2022-10-16T17:03:33;20.10;99.90
15357;DHT22;7778;48.792;9.260;2022-10-16T17:06:21;20.10;99.90
15357;DHT22;7778;48.792;9.260;2022-10-16T17:09:09;20.00;99.90
15357;DHT22;7778;48.792;9.260;2022-10-16T17:11:57;20.00;99.90
15357;DHT22;7778;48.792;9.260;2022-10-16T17:14:44;20.10;99.90
15357;DHT22;7778;48.792;9.260;2022-10-16T17:17:30;19.90;99.90
15357;DHT22;7778;48.792;9.260;2022-10-16T17:20:15;19.80;99.90
15357;DHT22;7778;48.792;9.260;2022-10-16T17:23:01;19.70;99.90
15357;DHT22;7778;48.792;9.260;2022-10-16T17:25:48;19.80;99.90
15357;DHT22;7778;48.792;9.260;2022-10-16T17:28:34;19.70;99.90
15357;DHT22;7778;48.792;9.260;2022-10-16T17:31:22;19.80;99.90
15357;DHT22;7778;48.792;9.260;2022-10-16T17:34:09;19.70;99.90
15357;DHT22;7778;48.792;9.260;2022-10-16T17:36:55;19.70;99.90
15357;DHT22;7778;48.792;9.260;2022-10-16T17:39:42;19.70;99.90
15357;DHT22;7778;48.792;9.260;2022-10-16T17:42:29;19.70;99.90
15357;DHT22;7778;48.792;9.260;2022-10-16T17:45:16;19.70;99.90
15357;DHT22;7778;48.792;9.260;2022-10-16T17:48:02;19.40;99.90
15357;DHT22;7778;48.792;9.260;2022-10-16T17:50:48;19.30;99.90
15357;DHT22;7778;48.792;9.260;2022-10-16T17:53:34;19.20;99.90
15357;DHT22;7778;48.792;9.260;2022-10-16T17:56:20;19.10;99.90
15357;DHT22;7778;48.792;9.260;2022-10-16T17:59:09;19.00;99.90
15357;DHT22;7778;48.792;9.260;2022-10-16T18:01:56;18.80;99.90
15357;DHT22;7778;48.792;9.260;2022-10-16T18:04:41;18.70;99.90
15357;DHT22;7778;48.792;9.260;2022-10-16T18:07:27;18.50;99.90
15357;DHT22;7778;48.792;9.260;2022-10-16T18:10:13;18.50;99.90
15357;DHT22;7778;48.792;9.260;2022-10-16T18:12:59;18.30;99.90